createdAt,value
2016-11-05T00:00:46.892Z,8.07
2016-11-05T00:01:47.154Z,8.1
2016-11-05T00:02:46.811Z,8.04
2016-11-05T00:03:46.778Z,8.04
2016-11-05T00:04:47.041Z,8.11
2016-11-05T00:05:46.696Z,8.11
2016-11-05T00:06:46.958Z,8.08
2016-11-05T00:07:46.317Z,8.05
2016-11-05T00:08:46.883Z,8.07
2016-11-05T00:09:46.847Z,7.98
2016-11-05T00:10:46.809Z,8.04
2016-11-05T00:11:46.769Z,8.05
2016-11-05T00:12:46.737Z,8.07
2016-11-05T00:13:46.691Z,8.08
2016-11-05T00:14:46.051Z,8.02
2016-11-05T00:15:46.617Z,8.02
2016-11-05T00:16:46.579Z,8.07
2016-11-05T00:17:46.541Z,8.05
2016-11-05T00:18:46.505Z,8.01
2016-11-05T00:19:46.486Z,8.05
2016-11-05T00:20:46.424Z,8.07
2016-11-05T00:21:46.081Z,8.07
2016-11-05T00:22:46.361Z,8.19
2016-11-05T00:23:46.007Z,8.16
2016-11-05T00:24:46.273Z,8.05
2016-11-05T00:25:46.231Z,8.16
2016-11-05T00:26:46.194Z,8.08
2016-11-05T00:27:46.156Z,8.16
2016-11-05T00:28:45.817Z,8.2
2016-11-05T00:29:46.086Z,8.22
2016-11-05T00:30:46.042Z,8.16
2016-11-05T00:31:46.009Z,8.2
2016-11-05T00:32:45.970Z,8.19
2016-11-05T00:33:45.923Z,8.16
2016-11-05T00:34:45.591Z,8.23
2016-11-05T00:35:45.851Z,8.2
2016-11-05T00:36:45.503Z,8.2
2016-11-05T00:37:45.466Z,8.33
2016-11-05T00:38:45.746Z,8.29
2016-11-05T00:39:45.695Z,8.36
2016-11-05T00:40:45.357Z,8.36
2016-11-05T00:41:45.617Z,8.3
2016-11-05T00:42:45.278Z,8.4
2016-11-05T00:43:45.542Z,8.45
2016-11-05T00:44:44.901Z,8.41
2016-11-05T00:45:45.170Z,8.5
2016-11-05T00:46:45.426Z,8.52
2016-11-05T00:47:45.393Z,8.48
2016-11-05T00:48:45.352Z,8.65
2016-11-05T00:49:45.311Z,8.61
2016-11-05T00:50:45.278Z,8.71
2016-11-05T00:51:45.232Z,8.71
2016-11-05T00:52:45.193Z,8.79
2016-11-05T00:53:45.159Z,8.8
2016-11-05T00:54:45.118Z,8.87
2016-11-05T00:55:45.081Z,8.91
2016-11-05T00:56:45.039Z,8.89
2016-11-05T00:57:44.704Z,8.83
2016-11-05T00:58:44.966Z,8.89
2016-11-05T00:59:44.626Z,8.84
2016-11-05T01:00:44.585Z,8.76
2016-11-05T01:01:44.854Z,8.73
2016-11-05T01:02:44.814Z,8.63
2016-11-05T01:03:44.476Z,8.58
2016-11-05T01:04:44.435Z,8.53
2016-11-05T01:05:44.398Z,8.56
2016-11-05T01:06:44.661Z,8.43
2016-11-05T01:07:44.321Z,8.44
2016-11-05T01:08:44.583Z,8.41
2016-11-05T01:09:44.241Z,8.52
2016-11-05T01:10:44.207Z,8.48
2016-11-05T01:11:44.468Z,8.47
2016-11-05T01:12:44.130Z,8.48
2016-11-05T01:13:44.094Z,8.45
2016-11-05T01:14:44.353Z,8.41
2016-11-05T01:15:44.315Z,8.41
2016-11-05T01:16:44.275Z,8.37
2016-11-05T01:17:43.937Z,8.47
2016-11-05T01:18:43.902Z,8.53
2016-11-05T01:19:44.163Z,8.45
2016-11-05T01:20:43.825Z,8.38
2016-11-05T01:21:44.088Z,8.43
2016-11-05T01:22:44.053Z,8.53
2016-11-05T01:23:44.008Z,8.53
2016-11-05T01:24:43.976Z,8.48
2016-11-05T01:25:43.640Z,8.55
2016-11-05T01:26:43.903Z,8.53
2016-11-05T01:27:43.861Z,8.55
2016-11-05T01:28:43.819Z,8.58
2016-11-05T01:29:43.483Z,8.61
2016-11-05T01:30:43.439Z,8.58
2016-11-05T01:31:43.700Z,8.62
2016-11-05T01:32:43.670Z,8.71
2016-11-05T01:33:43.024Z,8.68
2016-11-05T01:34:43.290Z,8.76
2016-11-05T01:35:43.549Z,8.7
2016-11-05T01:36:43.515Z,8.74
2016-11-05T01:37:43.472Z,8.77
2016-11-05T01:38:43.436Z,8.76
2016-11-05T01:39:43.435Z,8.79
2016-11-05T01:40:43.359Z,8.83
2016-11-05T01:41:43.321Z,8.81
2016-11-05T01:42:43.283Z,8.92
2016-11-05T01:43:43.249Z,8.91
2016-11-05T01:44:42.904Z,8.86
2016-11-05T01:45:43.174Z,9.02
2016-11-05T01:46:43.128Z,9.01
2016-11-05T01:47:42.484Z,8.96
2016-11-05T01:48:42.449Z,9.04
2016-11-05T01:49:42.709Z,8.99
2016-11-05T01:50:42.980Z,9.11
2016-11-05T01:51:42.640Z,9.2
2016-11-05T01:52:42.598Z,9.17
2016-11-05T01:53:42.865Z,9.2
2016-11-05T01:54:42.823Z,9.28
2016-11-05T01:55:42.177Z,9.33
2016-11-05T01:56:42.747Z,9.29
2016-11-05T01:57:42.708Z,9.35
2016-11-05T01:58:42.673Z,9.4
2016-11-05T01:59:42.634Z,9.36
2016-11-05T02:00:42.597Z,9.42
2016-11-05T02:01:42.260Z,9.57
2016-11-05T02:02:42.222Z,9.51
2016-11-05T02:03:42.485Z,9.6
2016-11-05T02:04:42.143Z,9.66
2016-11-05T02:05:42.103Z,9.69
2016-11-05T02:06:42.365Z,9.66
2016-11-05T02:07:42.340Z,9.71
2016-11-05T02:08:42.290Z,9.68
2016-11-05T02:09:42.259Z,9.68
2016-11-05T02:10:42.222Z,9.72
2016-11-05T02:11:42.183Z,9.68
2016-11-05T02:12:42.143Z,9.72
2016-11-05T02:13:42.108Z,9.71
2016-11-05T02:14:41.763Z,9.78
2016-11-05T02:15:41.727Z,9.79
2016-11-05T02:16:41.991Z,9.81
2016-11-05T02:17:41.953Z,9.81
2016-11-05T02:18:41.916Z,9.84
2016-11-05T02:19:41.876Z,9.89
2016-11-05T02:20:41.543Z,9.79
2016-11-05T02:21:41.801Z,9.87
2016-11-05T02:22:41.764Z,9.9
2016-11-05T02:23:41.431Z,9.89
2016-11-05T02:24:41.387Z,9.89
2016-11-05T02:25:41.654Z,9.87
2016-11-05T02:26:41.618Z,9.87
2016-11-05T02:27:41.578Z,9.94
2016-11-05T02:28:41.237Z,9.97
2016-11-05T02:29:41.536Z,10.05
2016-11-05T02:30:41.162Z,10.01
2016-11-05T02:31:41.427Z,10.07
2016-11-05T02:32:41.389Z,10.04
2016-11-05T02:33:41.355Z,10.07
2016-11-05T02:34:41.315Z,10.04
2016-11-05T02:35:41.280Z,10.02
2016-11-05T02:36:40.937Z,10.07
2016-11-05T02:37:41.200Z,10.01
2016-11-05T02:38:41.166Z,10.07
2016-11-05T02:39:41.126Z,9.97
2016-11-05T02:40:41.096Z,10.11
2016-11-05T02:41:41.049Z,10.07
2016-11-05T02:42:41.032Z,10.11
2016-11-05T02:43:40.979Z,10.02
2016-11-05T02:44:40.942Z,10.14
2016-11-05T02:45:40.901Z,10.18
2016-11-05T02:46:40.866Z,10.25
2016-11-05T02:47:40.832Z,10.22
2016-11-05T02:48:40.794Z,10.12
2016-11-05T02:49:40.762Z,10.12
2016-11-05T02:50:40.418Z,10.17
2016-11-05T02:51:40.683Z,10.15
2016-11-05T02:52:40.347Z,10.14
2016-11-05T02:53:40.606Z,10.12
2016-11-05T02:54:40.565Z,10.15
2016-11-05T02:55:40.532Z,10.15
2016-11-05T02:56:40.495Z,10.2
2016-11-05T02:57:40.156Z,10.18
2016-11-05T02:58:40.421Z,10.15
2016-11-05T02:59:40.386Z,10.17
2016-11-05T03:00:40.343Z,10.17
2016-11-05T03:01:40.341Z,10.27
2016-11-05T03:02:39.975Z,10.27
2016-11-05T03:03:39.931Z,10.15
2016-11-05T03:04:39.593Z,10.17
2016-11-05T03:05:40.158Z,10.2
2016-11-05T03:06:40.125Z,10.12
2016-11-05T03:07:40.087Z,10.02
2016-11-05T03:08:40.050Z,10.11
2016-11-05T03:09:40.009Z,10.04
2016-11-05T03:10:39.670Z,10.07
2016-11-05T03:11:39.936Z,9.93
2016-11-05T03:12:39.901Z,9.99
2016-11-05T03:13:39.562Z,9.81
2016-11-05T03:14:39.521Z,9.76
2016-11-05T03:15:39.788Z,9.79
2016-11-05T03:16:39.756Z,9.74
2016-11-05T03:17:39.409Z,9.76
2016-11-05T03:18:39.681Z,9.69
2016-11-05T03:19:39.340Z,9.71
2016-11-05T03:20:39.302Z,9.76
2016-11-05T03:21:39.565Z,9.71
2016-11-05T03:22:39.225Z,9.75
2016-11-05T03:23:39.492Z,9.76
2016-11-05T03:24:39.455Z,9.81
2016-11-05T03:25:39.112Z,9.78
2016-11-05T03:26:39.074Z,9.72
2016-11-05T03:27:39.049Z,9.71
2016-11-05T03:28:39.305Z,9.74
2016-11-05T03:29:38.961Z,9.79
2016-11-05T03:30:38.922Z,9.81
2016-11-05T03:31:39.191Z,9.78
2016-11-05T03:32:39.154Z,9.74
2016-11-05T03:33:39.116Z,9.84
2016-11-05T03:34:39.078Z,9.78
2016-11-05T03:35:39.039Z,9.79
2016-11-05T03:36:39.002Z,9.81
2016-11-05T03:37:38.965Z,9.81
2016-11-05T03:38:38.931Z,9.79
2016-11-05T03:39:38.888Z,9.81
2016-11-05T03:40:38.555Z,9.84
2016-11-05T03:41:38.514Z,9.84
2016-11-05T03:42:38.790Z,9.91
2016-11-05T03:43:38.742Z,9.87
2016-11-05T03:44:38.404Z,9.99
2016-11-05T03:45:38.363Z,9.87
2016-11-05T03:46:38.330Z,9.9
2016-11-05T03:47:38.593Z,9.93
2016-11-05T03:48:38.251Z,9.91
2016-11-05T03:49:38.217Z,9.87
2016-11-05T03:50:38.179Z,9.91
2016-11-05T03:51:38.451Z,9.9
2016-11-05T03:52:38.409Z,9.91
2016-11-05T03:53:38.372Z,9.96
2016-11-05T03:54:38.028Z,9.91
2016-11-05T03:55:38.294Z,9.97
2016-11-05T03:56:38.255Z,9.97
2016-11-05T03:57:38.222Z,10.01
2016-11-05T03:58:38.182Z,10.09
2016-11-05T03:59:37.845Z,10.07
2016-11-05T04:00:38.106Z,10.07
2016-11-05T04:01:38.075Z,10.01
2016-11-05T04:02:38.032Z,10.02
2016-11-05T04:03:37.993Z,10.05
2016-11-05T04:04:37.655Z,9.99
2016-11-05T04:05:37.930Z,10.05
2016-11-05T04:06:37.885Z,10.04
2016-11-05T04:07:37.844Z,10.08
2016-11-05T04:08:37.808Z,10.08
2016-11-05T04:09:37.469Z,10.11
2016-11-05T04:10:37.735Z,10.08
2016-11-05T04:11:37.697Z,10.07
2016-11-05T04:12:37.661Z,10.12
2016-11-05T04:13:37.624Z,10.08
2016-11-05T04:14:37.287Z,10.07
2016-11-05T04:15:36.946Z,10.12
2016-11-05T04:16:37.509Z,10.08
2016-11-05T04:17:37.474Z,10.09
2016-11-05T04:18:36.837Z,10.14
2016-11-05T04:19:37.405Z,10.14
2016-11-05T04:20:37.375Z,10.04
2016-11-05T04:21:37.328Z,10.04
2016-11-05T04:22:37.290Z,10.01
2016-11-05T04:23:37.252Z,10.07
2016-11-05T04:24:37.213Z,10.02
2016-11-05T04:25:37.176Z,10.09
2016-11-05T04:26:36.842Z,10.07
2016-11-05T04:27:36.805Z,10.14
2016-11-05T04:28:37.063Z,10.14
2016-11-05T04:29:37.026Z,10.11
2016-11-05T04:30:36.993Z,10.11
2016-11-05T04:31:36.954Z,10.12
2016-11-05T04:32:36.912Z,10.12
2016-11-05T04:33:36.878Z,10.09
2016-11-05T04:34:36.841Z,10.18
2016-11-05T04:35:36.809Z,10.11
2016-11-05T04:36:36.770Z,10.12
2016-11-05T04:37:36.734Z,10.15
2016-11-05T04:38:36.397Z,10.14
2016-11-05T04:39:36.715Z,10.18
2016-11-05T04:40:36.362Z,10.18
2016-11-05T04:41:36.585Z,10.12
2016-11-05T04:42:36.548Z,10.22
2016-11-05T04:43:36.514Z,10.15
2016-11-05T04:44:36.475Z,10.23
2016-11-05T04:45:36.438Z,10.2
2016-11-05T04:46:36.399Z,10.14
2016-11-05T04:47:36.363Z,10.18
2016-11-05T04:48:36.325Z,10.26
2016-11-05T04:49:36.283Z,10.23
2016-11-05T04:50:36.255Z,10.25
2016-11-05T04:51:36.214Z,10.26
2016-11-05T04:52:35.573Z,10.34
2016-11-05T04:53:35.867Z,10.29
2016-11-05T04:54:35.798Z,10.29
2016-11-05T04:55:36.066Z,10.22
2016-11-05T04:56:36.027Z,10.32
2016-11-05T04:57:35.692Z,10.34
2016-11-05T04:58:35.646Z,10.2
2016-11-05T04:59:35.623Z,10.23
2016-11-05T05:00:35.880Z,10.3
2016-11-05T05:01:35.845Z,10.26
2016-11-05T05:02:35.500Z,10.34
2016-11-05T05:03:35.485Z,10.2
2016-11-05T05:04:35.731Z,10.38
2016-11-05T05:05:35.691Z,10.27
2016-11-05T05:06:35.656Z,10.34
2016-11-05T05:07:35.316Z,10.33
2016-11-05T05:08:35.281Z,10.3
2016-11-05T05:09:35.576Z,10.2
2016-11-05T05:10:35.507Z,10.25
2016-11-05T05:11:35.170Z,10.12
2016-11-05T05:12:35.433Z,10.08
2016-11-05T05:13:35.394Z,10.04
2016-11-05T05:14:35.360Z,10.02
2016-11-05T05:15:34.724Z,10.08
2016-11-05T05:16:35.285Z,10.07
2016-11-05T05:17:34.983Z,10.02
2016-11-05T05:18:35.212Z,10.07
2016-11-05T05:19:35.175Z,9.99
2016-11-05T05:20:35.133Z,9.9
2016-11-05T05:21:35.098Z,9.99
2016-11-05T05:22:35.061Z,9.91
2016-11-05T05:23:35.037Z,9.89
2016-11-05T05:24:34.984Z,9.91
2016-11-05T05:25:34.952Z,10.01
2016-11-05T05:26:34.609Z,9.99
2016-11-05T05:27:34.872Z,9.89
2016-11-05T05:28:34.533Z,10.01
2016-11-05T05:29:34.200Z,10.04
2016-11-05T05:30:34.460Z,9.97
2016-11-05T05:31:34.727Z,9.93
2016-11-05T05:32:34.690Z,9.97
2016-11-05T05:33:34.346Z,9.93
2016-11-05T05:34:34.612Z,9.97
2016-11-05T05:35:34.578Z,10.08
2016-11-05T05:36:34.541Z,10.07
2016-11-05T05:37:34.501Z,10.01
2016-11-05T05:38:34.462Z,9.97
2016-11-05T05:39:34.126Z,9.97
2016-11-05T05:40:34.424Z,10.02
2016-11-05T05:41:34.351Z,9.9
2016-11-05T05:42:34.314Z,9.94
2016-11-05T05:43:34.281Z,9.87
2016-11-05T05:44:34.242Z,10.05
2016-11-05T05:45:34.203Z,9.94
2016-11-05T05:46:34.194Z,9.97
2016-11-05T05:47:34.134Z,9.94
2016-11-05T05:48:34.088Z,9.91
2016-11-05T05:49:33.749Z,9.91
2016-11-05T05:50:34.015Z,9.9
2016-11-05T05:51:33.984Z,10.04
2016-11-05T05:52:33.944Z,9.94
2016-11-05T05:53:33.599Z,9.91
2016-11-05T05:54:33.263Z,9.94
2016-11-05T05:55:33.834Z,9.86
2016-11-05T05:56:33.794Z,9.89
2016-11-05T05:57:33.754Z,9.94
2016-11-05T05:58:33.756Z,9.93
2016-11-05T05:59:33.680Z,9.86
2016-11-05T06:00:33.039Z,9.94
2016-11-05T06:01:33.306Z,9.87
2016-11-05T06:02:33.571Z,9.93
2016-11-05T06:03:32.928Z,9.97
2016-11-05T06:04:33.496Z,9.97
2016-11-05T06:05:33.152Z,9.94
2016-11-05T06:06:33.119Z,9.94
2016-11-05T06:07:33.383Z,9.93
2016-11-05T06:08:33.343Z,9.96
2016-11-05T06:09:33.309Z,9.91
2016-11-05T06:10:33.274Z,9.9
2016-11-05T06:11:33.234Z,9.93
2016-11-05T06:12:32.890Z,9.9
2016-11-05T06:13:33.161Z,9.91
2016-11-05T06:14:32.829Z,9.96
2016-11-05T06:15:33.083Z,9.94
2016-11-05T06:16:32.743Z,9.93
2016-11-05T06:17:33.008Z,9.89
2016-11-05T06:18:32.369Z,9.91
2016-11-05T06:19:32.938Z,10.04
2016-11-05T06:20:32.598Z,10.08
2016-11-05T06:21:32.855Z,10.01
2016-11-05T06:22:32.823Z,9.99
2016-11-05T06:23:32.784Z,10.02
2016-11-05T06:24:32.754Z,9.89
2016-11-05T06:25:32.713Z,9.94
2016-11-05T06:26:32.067Z,9.89
2016-11-05T06:27:32.637Z,9.94
2016-11-05T06:28:32.300Z,9.87
2016-11-05T06:29:32.558Z,9.86
2016-11-05T06:30:32.524Z,9.86
2016-11-05T06:31:32.486Z,9.91
2016-11-05T06:32:32.146Z,9.84
2016-11-05T06:33:32.415Z,9.81
2016-11-05T06:34:32.375Z,9.86
2016-11-05T06:35:32.338Z,9.81
2016-11-05T06:36:32.298Z,9.76
2016-11-05T06:37:31.961Z,9.81
2016-11-05T06:38:31.922Z,9.86
2016-11-05T06:39:32.188Z,9.76
2016-11-05T06:40:32.146Z,9.81
2016-11-05T06:41:32.112Z,9.83
2016-11-05T06:42:32.077Z,9.81
2016-11-05T06:43:32.037Z,9.79
2016-11-05T06:44:31.998Z,9.83
2016-11-05T06:45:31.967Z,9.81
2016-11-05T06:46:31.926Z,9.81
2016-11-05T06:47:31.884Z,9.79
2016-11-05T06:48:31.851Z,9.84
2016-11-05T06:49:31.817Z,9.87
2016-11-05T06:50:31.775Z,9.83
2016-11-05T06:51:31.742Z,9.79
2016-11-05T06:52:31.398Z,9.76
2016-11-05T06:53:31.364Z,9.74
2016-11-05T06:54:31.325Z,9.71
2016-11-05T06:55:31.591Z,9.75
2016-11-05T06:56:31.547Z,9.68
2016-11-05T06:57:31.515Z,9.69
2016-11-05T06:58:31.176Z,9.69
2016-11-05T06:59:31.438Z,9.72
2016-11-05T07:00:30.793Z,9.74
2016-11-05T07:01:31.365Z,9.71
2016-11-05T07:02:31.323Z,9.74
2016-11-05T07:03:31.284Z,9.79
2016-11-05T07:04:30.945Z,9.72
2016-11-05T07:05:31.211Z,9.81
2016-11-05T07:06:31.180Z,9.74
2016-11-05T07:07:31.134Z,9.74
2016-11-05T07:08:30.796Z,9.83
2016-11-05T07:09:31.063Z,9.83
2016-11-05T07:10:30.722Z,9.84
2016-11-05T07:11:30.984Z,9.81
2016-11-05T07:12:30.646Z,9.89
2016-11-05T07:13:30.912Z,9.94
2016-11-05T07:14:30.873Z,9.93
2016-11-05T07:15:30.837Z,9.89
2016-11-05T07:16:30.799Z,10.01
2016-11-05T07:17:30.758Z,10.04
2016-11-05T07:18:30.724Z,9.94
2016-11-05T07:19:30.682Z,10.11
2016-11-05T07:20:30.662Z,10.04
2016-11-05T07:21:30.303Z,10.07
2016-11-05T07:22:30.573Z,10.07
2016-11-05T07:23:29.929Z,10.18
2016-11-05T07:24:30.495Z,10.15
2016-11-05T07:25:30.457Z,10.23
2016-11-05T07:26:30.127Z,10.29
2016-11-05T07:27:30.081Z,10.27
2016-11-05T07:28:30.345Z,10.18
2016-11-05T07:29:30.312Z,10.27
2016-11-05T07:30:30.276Z,10.27
2016-11-05T07:31:29.941Z,10.22
2016-11-05T07:32:30.194Z,10.29
2016-11-05T07:33:29.861Z,10.27
2016-11-05T07:34:30.120Z,10.32
2016-11-05T07:35:30.126Z,10.27
2016-11-05T07:36:30.046Z,10.25
2016-11-05T07:37:30.013Z,10.26
2016-11-05T07:38:29.978Z,10.25
2016-11-05T07:39:29.334Z,10.26
2016-11-05T07:40:29.600Z,10.22
2016-11-05T07:41:29.562Z,10.26
2016-11-05T07:42:29.832Z,10.23
2016-11-05T07:43:29.524Z,10.25
2016-11-05T07:44:29.753Z,10.17
2016-11-05T07:45:29.717Z,10.2
2016-11-05T07:46:29.375Z,10.15
2016-11-05T07:47:29.645Z,10.22
2016-11-05T07:48:29.607Z,10.3
2016-11-05T07:49:29.570Z,10.18
2016-11-05T07:50:29.532Z,10.26
2016-11-05T07:51:29.495Z,10.34
2016-11-05T07:52:29.157Z,10.4
2016-11-05T07:53:29.116Z,10.38
2016-11-05T07:54:29.081Z,10.4
2016-11-05T07:55:29.345Z,10.47
2016-11-05T07:56:29.010Z,10.51
2016-11-05T07:57:29.277Z,10.51
2016-11-05T07:58:29.233Z,10.61
2016-11-05T07:59:29.201Z,10.61
2016-11-05T08:00:29.166Z,10.67
2016-11-05T08:01:29.122Z,10.74
2016-11-05T08:02:29.091Z,10.88
2016-11-05T08:03:29.054Z,10.85
2016-11-05T08:04:29.021Z,10.91
2016-11-05T08:05:28.676Z,11.06
2016-11-05T08:06:28.939Z,11.11
2016-11-05T08:07:28.902Z,11.07
2016-11-05T08:08:28.864Z,11.17
2016-11-05T08:09:28.832Z,11.17
2016-11-05T08:10:28.792Z,11.17
2016-11-05T08:11:28.454Z,11.1
2016-11-05T08:12:28.719Z,11.17
2016-11-05T08:13:28.685Z,11.15
2016-11-05T08:14:28.041Z,11.28
2016-11-05T08:15:28.615Z,11.32
2016-11-05T08:16:28.573Z,11.33
2016-11-05T08:17:28.235Z,11.42
2016-11-05T08:18:28.200Z,11.46
2016-11-05T08:19:28.464Z,11.49
2016-11-05T08:20:28.425Z,11.54
2016-11-05T08:21:28.092Z,11.73
2016-11-05T08:22:28.356Z,11.86
2016-11-05T08:23:28.325Z,12.16
2016-11-05T08:24:28.284Z,12.41
2016-11-05T08:25:27.645Z,12.68
2016-11-05T08:26:28.213Z,12.75
2016-11-05T08:27:28.176Z,12.78
2016-11-05T08:28:27.876Z,12.62
2016-11-05T08:29:28.151Z,12.64
2016-11-05T08:30:28.067Z,12.54
2016-11-05T08:31:27.745Z,12.5
2016-11-05T08:32:27.697Z,12.41
2016-11-05T08:33:27.658Z,12.45
2016-11-05T08:34:27.928Z,12.45
2016-11-05T08:35:27.891Z,12.49
2016-11-05T08:36:27.556Z,12.49
2016-11-05T08:37:27.518Z,12.38
2016-11-05T08:38:27.485Z,12.32
2016-11-05T08:39:27.454Z,12.31
2016-11-05T08:40:27.415Z,12.31
2016-11-05T08:41:27.407Z,12.27
2016-11-05T08:42:27.342Z,12.17
2016-11-05T08:43:27.610Z,12.21
2016-11-05T08:44:27.271Z,12.31
2016-11-05T08:45:27.234Z,12.38
2016-11-05T08:46:27.199Z,12.49
2016-11-05T08:47:27.468Z,12.59
2016-11-05T08:48:26.827Z,12.59
2016-11-05T08:49:27.399Z,12.65
2016-11-05T08:50:27.060Z,12.62
2016-11-05T08:51:27.333Z,12.56
2016-11-05T08:52:27.296Z,12.53
2016-11-05T08:53:27.254Z,12.56
2016-11-05T08:54:26.963Z,12.62
2016-11-05T08:55:27.186Z,12.46
2016-11-05T08:56:27.149Z,12.49
2016-11-05T08:57:27.113Z,12.49
2016-11-05T08:58:27.084Z,12.41
2016-11-05T08:59:27.042Z,12.34
2016-11-05T09:00:27.011Z,12.32
2016-11-05T09:01:26.676Z,12.31
2016-11-05T09:02:26.939Z,12.34
2016-11-05T09:03:26.939Z,12.32
2016-11-05T09:04:26.870Z,12.29
2016-11-05T09:05:26.526Z,12.31
2016-11-05T09:06:26.795Z,12.31
2016-11-05T09:07:26.461Z,12.32
2016-11-05T09:08:26.422Z,12.29
2016-11-05T09:09:26.688Z,12.32
2016-11-05T09:10:26.357Z,12.27
2016-11-05T09:11:26.628Z,12.29
2016-11-05T09:12:26.286Z,12.46
2016-11-05T09:13:26.551Z,12.41
2016-11-05T09:14:26.210Z,12.47
2016-11-05T09:15:26.213Z,12.42
2016-11-05T09:16:26.141Z,12.46
2016-11-05T09:17:26.424Z,12.42
2016-11-05T09:18:26.373Z,12.46
2016-11-05T09:19:26.338Z,12.42
2016-11-05T09:20:26.316Z,12.52
2016-11-05T09:21:26.265Z,12.56
2016-11-05T09:22:26.229Z,12.5
2016-11-05T09:23:25.592Z,12.6
2016-11-05T09:24:26.164Z,12.54
2016-11-05T09:25:26.140Z,12.41
2016-11-05T09:26:25.790Z,12.45
2016-11-05T09:27:26.057Z,12.45
2016-11-05T09:28:26.019Z,12.29
2016-11-05T09:29:25.981Z,12.28
2016-11-05T09:30:25.950Z,12.31
2016-11-05T09:31:25.916Z,12.23
2016-11-05T09:32:25.879Z,12.17
2016-11-05T09:33:25.539Z,12.2
2016-11-05T09:34:25.819Z,12.2
2016-11-05T09:35:25.774Z,12.16
2016-11-05T09:36:25.435Z,12.17
2016-11-05T09:37:25.703Z,12.07
2016-11-05T09:38:25.675Z,12.05
2016-11-05T09:39:25.628Z,11.95
2016-11-05T09:40:25.294Z,12.01
2016-11-05T09:41:25.561Z,12.02
2016-11-05T09:42:25.222Z,12.01
2016-11-05T09:43:25.491Z,12.05
2016-11-05T09:44:25.458Z,12.01
2016-11-05T09:45:25.116Z,11.96
2016-11-05T09:46:25.385Z,11.9
2016-11-05T09:47:25.047Z,12.09
2016-11-05T09:48:25.313Z,12.01
2016-11-05T09:49:25.275Z,12.01
2016-11-05T09:50:24.963Z,11.98
2016-11-05T09:51:24.905Z,11.99
2016-11-05T09:52:24.901Z,12.04
2016-11-05T09:53:25.136Z,12.07
2016-11-05T09:54:25.098Z,11.99
2016-11-05T09:55:24.768Z,11.95
2016-11-05T09:56:24.725Z,12.02
2016-11-05T09:57:24.991Z,12.04
2016-11-05T09:58:24.653Z,11.96
2016-11-05T09:59:24.920Z,12.04
2016-11-05T10:00:24.586Z,12.04
2016-11-05T10:01:24.849Z,12.02
2016-11-05T10:02:24.815Z,12.12
2016-11-05T10:03:24.782Z,12.12
2016-11-05T10:04:24.743Z,12.2
2016-11-05T10:05:24.707Z,12.19
2016-11-05T10:06:24.366Z,12.24
2016-11-05T10:07:24.332Z,12.13
2016-11-05T10:08:24.603Z,12.19
2016-11-05T10:09:24.568Z,12.29
2016-11-05T10:10:24.537Z,12.35
2016-11-05T10:11:24.536Z,12.29
2016-11-05T10:12:24.152Z,12.29
2016-11-05T10:13:24.420Z,12.32
2016-11-05T10:14:24.384Z,12.29
2016-11-05T10:15:24.356Z,12.21
2016-11-05T10:16:24.316Z,12.35
2016-11-05T10:17:24.281Z,12.32
2016-11-05T10:18:24.257Z,12.29
2016-11-05T10:19:24.209Z,12.32
2016-11-05T10:20:24.176Z,12.32
2016-11-05T10:21:24.139Z,12.34
2016-11-05T10:22:24.101Z,12.31
2016-11-05T10:23:23.761Z,12.37
2016-11-05T10:24:24.033Z,12.32
2016-11-05T10:25:24.004Z,12.32
2016-11-05T10:26:23.664Z,12.34
2016-11-05T10:27:23.321Z,12.34
2016-11-05T10:28:23.587Z,12.28
2016-11-05T10:29:23.859Z,12.34
2016-11-05T10:30:23.822Z,12.32
2016-11-05T10:31:23.480Z,12.31
2016-11-05T10:32:23.750Z,12.27
2016-11-05T10:33:23.717Z,12.35
2016-11-05T10:34:23.678Z,12.27
2016-11-05T10:35:23.648Z,12.37
2016-11-05T10:36:23.603Z,12.52
2016-11-05T10:37:23.601Z,12.39
2016-11-05T10:38:23.536Z,12.5
2016-11-05T10:39:23.507Z,12.53
2016-11-05T10:40:23.466Z,12.56
2016-11-05T10:41:23.437Z,12.64
2016-11-05T10:42:23.400Z,12.68
2016-11-05T10:43:23.372Z,12.68
2016-11-05T10:44:23.322Z,12.68
2016-11-05T10:45:23.285Z,12.7
2016-11-05T10:46:23.256Z,12.67
2016-11-05T10:47:23.221Z,12.74
2016-11-05T10:48:22.881Z,12.75
2016-11-05T10:49:22.847Z,12.74
2016-11-05T10:50:23.108Z,12.85
2016-11-05T10:51:23.077Z,12.87
2016-11-05T10:52:23.037Z,12.92
2016-11-05T10:53:22.710Z,12.9
2016-11-05T10:54:22.973Z,12.9
2016-11-05T10:55:22.642Z,12.93
2016-11-05T10:56:22.597Z,12.89
2016-11-05T10:57:22.870Z,12.87
2016-11-05T10:58:22.836Z,12.89
2016-11-05T10:59:22.796Z,12.89
2016-11-05T11:00:22.462Z,12.79
2016-11-05T11:01:22.427Z,12.82
2016-11-05T11:02:22.393Z,12.85
2016-11-05T11:03:22.354Z,12.87
2016-11-05T11:04:22.624Z,12.78
2016-11-05T11:05:22.285Z,12.79
2016-11-05T11:06:22.287Z,12.67
2016-11-05T11:07:22.520Z,12.71
2016-11-05T11:08:22.485Z,12.62
2016-11-05T11:09:22.145Z,12.68
2016-11-05T11:10:22.421Z,12.7
2016-11-05T11:11:22.074Z,12.64
2016-11-05T11:12:22.042Z,12.68
2016-11-05T11:13:22.304Z,12.67
2016-11-05T11:14:22.268Z,12.54
2016-11-05T11:15:22.239Z,12.6
2016-11-05T11:16:21.597Z,12.68
2016-11-05T11:17:21.561Z,12.59
2016-11-05T11:18:21.827Z,12.53
2016-11-05T11:19:22.096Z,12.6
2016-11-05T11:20:21.757Z,12.5
2016-11-05T11:21:22.030Z,12.46
2016-11-05T11:22:21.993Z,12.42
2016-11-05T11:23:21.954Z,12.42
2016-11-05T11:24:21.922Z,12.5
2016-11-05T11:25:21.887Z,12.46
2016-11-05T11:26:21.548Z,12.45
2016-11-05T11:27:21.511Z,12.41
2016-11-05T11:28:21.778Z,12.46
2016-11-05T11:29:21.746Z,12.45
2016-11-05T11:30:21.710Z,12.59
2016-11-05T11:31:21.370Z,12.54
2016-11-05T11:32:21.337Z,12.56
2016-11-05T11:33:21.602Z,12.59
2016-11-05T11:34:21.569Z,12.56
2016-11-05T11:35:21.552Z,12.54
2016-11-05T11:36:21.497Z,12.59
2016-11-05T11:37:21.469Z,12.57
2016-11-05T11:38:21.129Z,12.56
2016-11-05T11:39:21.086Z,12.45
2016-11-05T11:40:21.359Z,12.56
2016-11-05T11:41:21.027Z,12.41
2016-11-05T11:42:21.285Z,12.49
2016-11-05T11:43:21.267Z,12.47
2016-11-05T11:44:20.917Z,12.5
2016-11-05T11:45:21.511Z,12.46
2016-11-05T11:46:21.143Z,12.59
2016-11-05T11:47:20.805Z,12.49
2016-11-05T11:48:21.071Z,12.42
2016-11-05T11:49:20.739Z,12.42
2016-11-05T11:50:20.398Z,12.47
2016-11-05T11:51:20.967Z,12.39
2016-11-05T11:52:20.932Z,12.47
2016-11-05T11:53:20.902Z,12.45
2016-11-05T11:54:20.862Z,12.46
2016-11-05T11:55:20.529Z,12.52
2016-11-05T11:56:20.795Z,12.45
2016-11-05T11:57:20.761Z,12.5
2016-11-05T11:58:20.721Z,12.45
2016-11-05T11:59:20.684Z,12.41
2016-11-05T12:00:20.649Z,12.39
2016-11-05T12:01:20.624Z,12.24
2016-11-05T12:02:20.275Z,12.32
2016-11-05T12:03:20.241Z,12.29
2016-11-05T12:04:20.508Z,12.35
2016-11-05T12:05:20.202Z,12.31
2016-11-05T12:06:20.435Z,12.35
2016-11-05T12:07:20.107Z,12.32
2016-11-05T12:08:20.366Z,12.31
2016-11-05T12:09:20.331Z,12.34
2016-11-05T12:10:20.296Z,12.31
2016-11-05T12:11:19.961Z,12.37
2016-11-05T12:12:20.226Z,12.31
2016-11-05T12:13:20.189Z,12.35
2016-11-05T12:14:19.550Z,12.31
2016-11-05T12:15:19.820Z,12.28
2016-11-05T12:16:20.083Z,12.29
2016-11-05T12:17:19.748Z,12.28
2016-11-05T12:18:19.721Z,12.32
2016-11-05T12:19:19.673Z,12.28
2016-11-05T12:20:19.940Z,12.28
2016-11-05T12:21:19.602Z,12.49
2016-11-05T12:22:19.869Z,12.34
2016-11-05T12:23:19.534Z,12.47
2016-11-05T12:24:19.228Z,12.32
2016-11-05T12:25:19.464Z,12.27
2016-11-05T12:26:19.432Z,12.39
2016-11-05T12:27:19.395Z,12.34
2016-11-05T12:28:19.057Z,12.49
2016-11-05T12:29:19.320Z,12.47
2016-11-05T12:30:19.289Z,12.49
2016-11-05T12:31:19.247Z,12.42
2016-11-05T12:32:19.216Z,12.39
2016-11-05T12:33:19.481Z,12.47
2016-11-05T12:34:19.145Z,12.46
2016-11-05T12:35:18.839Z,12.46
2016-11-05T12:36:19.376Z,12.49
2016-11-05T12:37:19.338Z,12.39
2016-11-05T12:38:19.005Z,12.49
2016-11-05T12:39:19.271Z,12.39
2016-11-05T12:40:19.237Z,12.42
2016-11-05T12:41:19.199Z,12.49
2016-11-05T12:42:19.188Z,12.47
2016-11-05T12:43:19.127Z,12.47
2016-11-05T12:44:18.796Z,12.45
2016-11-05T12:45:19.061Z,12.59
2016-11-05T12:46:19.048Z,12.53
2016-11-05T12:47:18.379Z,12.54
2016-11-05T12:48:18.884Z,12.56
2016-11-05T12:49:18.922Z,12.59
2016-11-05T12:50:18.876Z,12.68
2016-11-05T12:51:18.545Z,12.62
2016-11-05T12:52:18.811Z,12.65
2016-11-05T12:53:18.775Z,12.62
2016-11-05T12:54:18.744Z,12.62
2016-11-05T12:55:18.707Z,12.68
2016-11-05T12:56:18.668Z,12.64
2016-11-05T12:57:18.331Z,12.77
2016-11-05T12:58:18.601Z,12.79
2016-11-05T12:59:18.565Z,12.72
2016-11-05T13:00:18.526Z,12.75
2016-11-05T13:01:18.489Z,12.86
2016-11-05T13:02:18.455Z,12.86
2016-11-05T13:03:18.423Z,13.01
2016-11-05T13:04:18.387Z,13.01